sensor_id;sensor_type;location;lat;lon;timestamp;pressure;altitude;pressure_sealevel;temperature;humidity
4410;BME280;2218;51.408;7.208;2023-12-22T00:01:13;98188.16;;;18.96;43.91
4410;BME280;2218;51.408;7.208;2023-12-22T00:03:41;98182.88;;;18.96;43.52
4410;BME280;2218;51.408;7.208;2023-12-22T00:06:08;98188.28;;;18.94;43.81
4410;BME280;2218;51.408;7.208;2023-12-22T00:08:38;98185.78;;;18.93;43.52
4410;BME280;2218;51.408;7.208;2023-12-22T00:11:05;98182.34;;;18.92;43.51
4410;BME280;2218;51.408;7.208;2023-12-22T00:13:32;98183.31;;;18.91;43.61
4410;BME280;2218;51.408;7.208;2023-12-22T00:15:59;98186.91;;;18.90;43.50
4410;BME280;2218;51.408;7.208;2023-12-22T00:18:27;98185.13;;;18.91;43.72
4410;BME280;2218;51.408;7.208;2023-12-22T00:20:54;98200.19;;;18.89;43.65
4410;BME280;2218;51.408;7.208;2023-12-22T00:23:20;98191.47;;;18.88;43.72
4410;BME280;2218;51.408;7.208;2023-12-22T00:25:49;98201.34;;;18.86;43.49
4410;BME280;2218;51.408;7.208;2023-12-22T00:28:16;98218.91;;;18.85;43.62
4410;BME280;2218;51.408;7.208;2023-12-22T00:30:43;98212.94;;;18.83;43.48
4410;BME280;2218;51.408;7.208;2023-12-22T00:33:10;98223.47;;;18.83;43.82
4410;BME280;2218;51.408;7.208;2023-12-22T00:35:37;98223.47;;;18.83;43.76
4410;BME280;2218;51.408;7.208;2023-12-22T00:38:05;98223.63;;;18.82;43.42
4410;BME280;2218;51.408;7.208;2023-12-22T00:40:32;98238.59;;;18.81;43.46
4410;BME280;2218;51.408;7.208;2023-12-22T00:43:00;98230.69;;;18.81;43.70
4410;BME280;2218;51.408;7.208;2023-12-22T00:45:27;98241.38;;;18.80;43.61
4410;BME280;2218;51.408;7.208;2023-12-22T00:47:54;98239.56;;;18.80;43.38
4410;BME280;2218;51.408;7.208;2023-12-22T00:50:21;98237.06;;;18.79;43.40
4410;BME280;2218;51.408;7.208;2023-12-22T00:52:48;98238.84;;;18.78;43.51
4410;BME280;2218;51.408;7.208;2023-12-22T00:55:15;98236.22;;;18.78;43.61
4410;BME280;2218;51.408;7.208;2023-12-22T00:57:43;98229.31;;;18.77;43.05
4410;BME280;2218;51.408;7.208;2023-12-22T01:00:13;98243.44;;;18.76;43.60
4410;BME280;2218;51.408;7.208;2023-12-22T01:02:40;98249.69;;;18.75;43.42
4410;BME280;2218;51.408;7.208;2023-12-22T01:05:08;98225.16;;;18.75;43.39
4410;BME280;2218;51.408;7.208;2023-12-22T01:07:35;98227.91;;;18.73;43.11
4410;BME280;2218;51.408;7.208;2023-12-22T01:10:01;98228.91;;;18.72;43.44
4410;BME280;2218;51.408;7.208;2023-12-22T01:12:29;98240.25;;;18.73;43.34
4410;BME280;2218;51.408;7.208;2023-12-22T01:14:57;98237.75;;;18.71;43.19
4410;BME280;2218;51.408;7.208;2023-12-22T01:17:25;98223.78;;;18.71;43.26
4410;BME280;2218;51.408;7.208;2023-12-22T01:19:52;98237.06;;;18.69;43.28
4410;BME280;2218;51.408;7.208;2023-12-22T01:22:19;98249.25;;;18.70;43.56
4410;BME280;2218;51.408;7.208;2023-12-22T01:24:48;98241.47;;;18.69;43.30
4410;BME280;2218;51.408;7.208;2023-12-22T01:27:15;98251.19;;;18.68;43.75
4410;BME280;2218;51.408;7.208;2023-12-22T01:29:42;98252.13;;;18.67;43.48
4410;BME280;2218;51.408;7.208;2023-12-22T01:32:09;98254.75;;;18.67;43.40
4410;BME280;2218;51.408;7.208;2023-12-22T01:34:37;98249.66;;;18.66;43.56
4410;BME280;2218;51.408;7.208;2023-12-22T01:37:04;98257.53;;;18.66;43.24
4410;BME280;2218;51.408;7.208;2023-12-22T01:39:32;98245.31;;;18.65;43.49
4410;BME280;2218;51.408;7.208;2023-12-22T01:41:59;98255.03;;;18.64;43.34
4410;BME280;2218;51.408;7.208;2023-12-22T01:44:26;98256.72;;;18.65;43.21
4410;BME280;2218;51.408;7.208;2023-12-22T01:46:53;98264.72;;;18.64;43.56
4410;BME280;2218;51.408;7.208;2023-12-22T01:49:22;98264.72;;;18.64;43.26
4410;BME280;2218;51.408;7.208;2023-12-22T01:51:52;98263.88;;;18.63;43.06
4410;BME280;2218;51.408;7.208;2023-12-22T01:54:19;98264.72;;;18.64;43.25
4410;BME280;2218;51.408;7.208;2023-12-22T01:56:46;98278.03;;;18.62;43.21
4410;BME280;2218;51.408;7.208;2023-12-22T01:59:13;98292.16;;;18.61;43.33
4410;BME280;2218;51.408;7.208;2023-12-22T02:01:42;98317.63;;;18.60;43.17
4410;BME280;2218;51.408;7.208;2023-12-22T02:04:12;98312.38;;;18.60;43.04
4410;BME280;2218;51.408;7.208;2023-12-22T02:06:41;98289.63;;;18.59;43.14
4410;BME280;2218;51.408;7.208;2023-12-22T02:09:10;98287.97;;;18.58;43.25
4410;BME280;2218;51.408;7.208;2023-12-22T02:11:38;98281.88;;;18.58;43.14
4410;BME280;2218;51.408;7.208;2023-12-22T02:14:06;98288.13;;;18.57;43.19
4410;BME280;2218;51.408;7.208;2023-12-22T02:16:42;98281.19;;;18.56;42.87
4410;BME280;2218;51.408;7.208;2023-12-22T02:19:38;98284.81;;;18.55;42.89
4410;BME280;2218;51.408;7.208;2023-12-22T02:22:09;98289.09;;;18.56;42.85
4410;BME280;2218;51.408;7.208;2023-12-22T02:24:38;98293.66;;;18.54;42.65
4410;BME280;2218;51.408;7.208;2023-12-22T02:27:20;98296.28;;;18.54;42.88
4410;BME280;2218;51.408;7.208;2023-12-22T02:29:52;98300.31;;;18.58;42.73
4410;BME280;2218;51.408;7.208;2023-12-22T02:32:31;98297.13;;;18.64;42.87
4410;BME280;2218;51.408;7.208;2023-12-22T02:35:03;98307.97;;;18.71;42.36
4410;BME280;2218;51.408;7.208;2023-12-22T02:37:34;98308.25;;;18.77;42.22
4410;BME280;2218;51.408;7.208;2023-12-22T02:40:05;98301.59;;;18.83;41.95
4410;BME280;2218;51.408;7.208;2023-12-22T02:42:35;98300.22;;;18.89;42.10
4410;BME280;2218;51.408;7.208;2023-12-22T02:45:04;98278.91;;;18.92;41.96
4410;BME280;2218;51.408;7.208;2023-12-22T02:47:32;98282.94;;;18.96;41.92
4410;BME280;2218;51.408;7.208;2023-12-22T02:49:59;98272.09;;;18.99;41.90
4410;BME280;2218;51.408;7.208;2023-12-22T02:52:27;98271.00;;;19.01;41.73
4410;BME280;2218;51.408;7.208;2023-12-22T02:54:54;98262.69;;;19.06;41.73
4410;BME280;2218;51.408;7.208;2023-12-22T02:57:22;98266.97;;;19.07;41.87
4410;BME280;2218;51.408;7.208;2023-12-22T02:59:50;98269.47;;;19.08;41.55
4410;BME280;2218;51.408;7.208;2023-12-22T03:02:16;98280.56;;;19.12;41.60
4410;BME280;2218;51.408;7.208;2023-12-22T03:04:43;98295.38;;;19.13;41.56
4410;BME280;2218;51.408;7.208;2023-12-22T03:07:12;98288.19;;;19.15;41.65
4410;BME280;2218;51.408;7.208;2023-12-22T03:09:39;98281.94;;;19.16;41.58
4410;BME280;2218;51.408;7.208;2023-12-22T03:12:07;98294.97;;;19.18;41.49
4410;BME280;2218;51.408;7.208;2023-12-22T03:14:36;98293.97;;;19.19;41.32
4410;BME280;2218;51.408;7.208;2023-12-22T03:17:05;98289.28;;;19.22;41.45
4410;BME280;2218;51.408;7.208;2023-12-22T03:19:33;98297.16;;;19.22;41.37
4410;BME280;2218;51.408;7.208;2023-12-22T03:22:01;98306.72;;;19.23;41.41
4410;BME280;2218;51.408;7.208;2023-12-22T03:24:28;98304.94;;;19.24;41.62
4410;BME280;2218;51.408;7.208;2023-12-22T03:26:55;98305.75;;;19.24;41.58
4410;BME280;2218;51.408;7.208;2023-12-22T03:29:22;98309.09;;;19.26;41.56
4410;BME280;2218;51.408;7.208;2023-12-22T03:31:50;98319.63;;;19.26;41.39
4410;BME280;2218;51.408;7.208;2023-12-22T03:34:17;98321.28;;;19.27;41.23
4410;BME280;2218;51.408;7.208;2023-12-22T03:36:45;98322.94;;;19.28;41.45
4410;BME280;2218;51.408;7.208;2023-12-22T03:39:14;98313.25;;;19.29;41.28
4410;BME280;2218;51.408;7.208;2023-12-22T03:41:41;98308.81;;;19.29;41.47
4410;BME280;2218;51.408;7.208;2023-12-22T03:44:08;98312.41;;;19.28;41.25
4410;BME280;2218;51.408;7.208;2023-12-22T03:46:35;98309.78;;;19.28;41.16
4410;BME280;2218;51.408;7.208;2023-12-22T03:49:04;98301.03;;;19.28;41.19
4410;BME280;2218;51.408;7.208;2023-12-22T03:51:31;98292.31;;;19.27;41.25
4410;BME280;2218;51.408;7.208;2023-12-22T03:53:58;98288.03;;;19.26;41.14
4410;BME280;2218;51.408;7.208;2023-12-22T03:56:25;98289.69;;;19.27;41.25
4410;BME280;2218;51.408;7.208;2023-12-22T03:58:51;98284.41;;;19.27;41.19
4410;BME280;2218;51.408;7.208;2023-12-22T04:01:19;98284.41;;;19.27;41.23
4410;BME280;2218;51.408;7.208;2023-12-22T04:03:46;98288.03;;;19.26;41.36
4410;BME280;2218;51.408;7.208;2023-12-22T04:06:14;98286.22;;;19.27;41.18
4410;BME280;2218;51.408;7.208;2023-12-22T04:08:41;98301.03;;;19.28;41.14
4410;BME280;2218;51.408;7.208;2023-12-22T04:11:08;98298.41;;;19.28;41.13
4410;BME280;2218;51.408;7.208;2023-12-22T04:13:35;98305.47;;;19.27;41.22
4410;BME280;2218;51.408;7.208;2023-12-22T04:16:02;98311.56;;;19.28;41.19
4410;BME280;2218;51.408;7.208;2023-12-22T04:18:31;98315.03;;;19.28;41.15
4410;BME280;2218;51.408;7.208;2023-12-22T04:20:58;98330.00;;;19.28;41.01
4410;BME280;2218;51.408;7.208;2023-12-22T04:23:26;98332.66;;;19.28;40.97
4410;BME280;2218;51.408;7.208;2023-12-22T04:25:55;98338.75;;;19.28;41.12
4410;BME280;2218;51.408;7.208;2023-12-22T04:28:22;98336.25;;;19.27;41.05
4410;BME280;2218;51.408;7.208;2023-12-22T04:30:49;98348.44;;;19.28;41.24
4410;BME280;2218;51.408;7.208;2023-12-22T04:33:16;98360.78;;;19.27;41.19
4410;BME280;2218;51.408;7.208;2023-12-22T04:35:43;98352.88;;;19.27;41.30
4410;BME280;2218;51.408;7.208;2023-12-22T04:38:10;98335.44;;;19.26;41.31
4410;BME280;2218;51.408;7.208;2023-12-22T04:40:38;98340.69;;;19.26;41.27
4410;BME280;2218;51.408;7.208;2023-12-22T04:43:05;98347.63;;;19.27;41.37
4410;BME280;2218;51.408;7.208;2023-12-22T04:45:32;98329.19;;;19.27;41.48
4410;BME280;2218;51.408;7.208;2023-12-22T04:47:59;98345.00;;;19.27;41.13
4410;BME280;2218;51.408;7.208;2023-12-22T04:50:26;98358.16;;;19.27;41.49
4410;BME280;2218;51.408;7.208;2023-12-22T04:52:53;98372.16;;;19.28;41.25
4410;BME280;2218;51.408;7.208;2023-12-22T04:55:20;98372.16;;;19.28;41.22
4410;BME280;2218;51.408;7.208;2023-12-22T04:57:49;98384.50;;;19.27;41.33
4410;BME280;2218;51.408;7.208;2023-12-22T05:00:16;98379.22;;;19.27;41.19
4410;BME280;2218;51.408;7.208;2023-12-22T05:02:43;98386.16;;;19.28;41.21
4410;BME280;2218;51.408;7.208;2023-12-22T05:05:11;98375.63;;;19.28;41.01
4410;BME280;2218;51.408;7.208;2023-12-22T05:07:38;98372.03;;;19.29;40.93
4410;BME280;2218;51.408;7.208;2023-12-22T05:10:07;98366.78;;;19.29;40.79
4410;BME280;2218;51.408;7.208;2023-12-22T05:12:34;98356.25;;;19.29;40.73
4410;BME280;2218;51.408;7.208;2023-12-22T05:15:04;98373.69;;;19.30;40.93
4410;BME280;2218;51.408;7.208;2023-12-22T05:17:31;98384.22;;;19.30;40.64
4410;BME280;2218;51.408;7.208;2023-12-22T05:19:59;98378.97;;;19.30;40.75
4410;BME280;2218;51.408;7.208;2023-12-22T05:22:26;98378.00;;;19.31;40.74
4410;BME280;2218;51.408;7.208;2023-12-22T05:24:56;98380.78;;;19.30;40.42
4410;BME280;2218;51.408;7.208;2023-12-22T05:27:26;98380.47;;;19.33;40.61
4410;BME280;2218;51.408;7.208;2023-12-22T05:29:53;98383.94;;;19.33;40.45
4410;BME280;2218;51.408;7.208;2023-12-22T05:32:21;98381.44;;;19.32;40.48
4410;BME280;2218;51.408;7.208;2023-12-22T05:34:48;98392.81;;;19.32;40.40
4410;BME280;2218;51.408;7.208;2023-12-22T05:37:15;98394.47;;;19.33;40.65
4410;BME280;2218;51.408;7.208;2023-12-22T05:39:42;98389.22;;;19.33;40.38
4410;BME280;2218;51.408;7.208;2023-12-22T05:42:10;98391.84;;;19.33;40.63
4410;BME280;2218;51.408;7.208;2023-12-22T05:44:38;98394.47;;;19.33;40.70
4410;BME280;2218;51.408;7.208;2023-12-22T05:47:05;98405.00;;;19.33;40.36
4410;BME280;2218;51.408;7.208;2023-12-22T05:49:33;98408.63;;;19.32;40.55
4410;BME280;2218;51.408;7.208;2023-12-22T05:52:01;98411.25;;;19.32;40.74
4410;BME280;2218;51.408;7.208;2023-12-22T05:54:28;98405.84;;;19.34;40.62
4410;BME280;2218;51.408;7.208;2023-12-22T05:56:55;98404.19;;;19.33;40.54
4410;BME280;2218;51.408;7.208;2023-12-22T05:59:22;98418.19;;;19.33;40.52
4410;BME280;2218;51.408;7.208;2023-12-22T06:01:53;98424.28;;;19.34;40.71
4410;BME280;2218;51.408;7.208;2023-12-22T06:04:21;98427.78;;;19.34;40.70
4410;BME280;2218;51.408;7.208;2023-12-22T06:06:49;98416.38;;;19.34;40.65
4410;BME280;2218;51.408;7.208;2023-12-22T06:09:16;98438.31;;;19.34;40.78
4410;BME280;2218;51.408;7.208;2023-12-22T06:11:44;98440.94;;;19.34;40.68
4410;BME280;2218;51.408;7.208;2023-12-22T06:14:11;98437.44;;;19.34;40.71
4410;BME280;2218;51.408;7.208;2023-12-22T06:16:39;98440.09;;;19.34;40.71
4410;BME280;2218;51.408;7.208;2023-12-22T06:19:06;98421.66;;;19.34;40.61
4410;BME280;2218;51.408;7.208;2023-12-22T06:21:33;98417.25;;;19.34;40.86
4410;BME280;2218;51.408;7.208;2023-12-22T06:24:01;98414.59;;;19.34;40.88
4410;BME280;2218;51.408;7.208;2023-12-22T06:26:28;98423.34;;;19.35;40.89
4410;BME280;2218;51.408;7.208;2023-12-22T06:28:55;98413.63;;;19.35;40.63
4410;BME280;2218;51.408;7.208;2023-12-22T06:31:23;98403.09;;;19.35;40.75
4410;BME280;2218;51.408;7.208;2023-12-22T06:33:51;98418.91;;;19.35;40.67
4410;BME280;2218;51.408;7.208;2023-12-22T06:36:19;98418.91;;;19.35;40.24
4410;BME280;2218;51.408;7.208;2023-12-22T06:38:46;98434.69;;;19.35;40.70
4410;BME280;2218;51.408;7.208;2023-12-22T06:41:21;98425.81;;;19.36;40.59
4410;BME280;2218;51.408;7.208;2023-12-22T06:43:49;98416.94;;;19.37;40.55
4410;BME280;2218;51.408;7.208;2023-12-22T06:46:18;98424.84;;;19.37;40.47
4410;BME280;2218;51.408;7.208;2023-12-22T06:48:46;98422.22;;;19.37;40.37
4410;BME280;2218;51.408;7.208;2023-12-22T06:51:20;98417.78;;;19.38;40.65
4410;BME280;2218;51.408;7.208;2023-12-22T06:53:47;98427.47;;;19.37;40.44
4410;BME280;2218;51.408;7.208;2023-12-22T06:56:16;98423.88;;;19.38;40.46
4410;BME280;2218;51.408;7.208;2023-12-22T06:58:45;98422.22;;;19.37;40.29
4410;BME280;2218;51.408;7.208;2023-12-22T07:01:18;98402.78;;;19.38;40.30
4410;BME280;2218;51.408;7.208;2023-12-22T07:03:48;98392.25;;;19.38;40.36
4410;BME280;2218;51.408;7.208;2023-12-22T07:06:15;98398.34;;;19.39;40.22
4410;BME280;2218;51.408;7.208;2023-12-22T07:08:42;98382.69;;;19.37;40.33
4410;BME280;2218;51.408;7.208;2023-12-22T07:11:09;98389.63;;;19.38;40.45
4410;BME280;2218;51.408;7.208;2023-12-22T07:13:36;98385.19;;;19.39;40.28
4410;BME280;2218;51.408;7.208;2023-12-22T07:16:05;98381.72;;;19.38;40.34
4410;BME280;2218;51.408;7.208;2023-12-22T07:18:33;98372.88;;;19.40;40.28
4410;BME280;2218;51.408;7.208;2023-12-22T07:21:00;98379.91;;;19.39;40.17
4410;BME280;2218;51.408;7.208;2023-12-22T07:23:28;98383.41;;;19.40;40.35
4410;BME280;2218;51.408;7.208;2023-12-22T07:25:55;98378.97;;;19.40;40.51
4410;BME280;2218;51.408;7.208;2023-12-22T07:28:22;98371.06;;;19.40;40.19
4410;BME280;2218;51.408;7.208;2023-12-22T07:30:49;98368.44;;;19.40;40.57
4410;BME280;2218;51.408;7.208;2023-12-22T07:33:17;98382.44;;;19.41;40.54
4410;BME280;2218;51.408;7.208;2023-12-22T07:35:44;98385.06;;;19.41;40.31
4410;BME280;2218;51.408;7.208;2023-12-22T07:38:11;98385.06;;;19.41;40.28
4410;BME280;2218;51.408;7.208;2023-12-22T07:40:38;98390.34;;;19.41;40.45
4410;BME280;2218;51.408;7.208;2023-12-22T07:43:05;98388.53;;;19.41;40.44
4410;BME280;2218;51.408;7.208;2023-12-22T07:45:33;98392.00;;;19.42;40.41
4410;BME280;2218;51.408;7.208;2023-12-22T07:48:02;98390.34;;;19.41;40.32
4410;BME280;2218;51.408;7.208;2023-12-22T07:50:30;98390.34;;;19.41;40.32
4410;BME280;2218;51.408;7.208;2023-12-22T07:52:57;98392.00;;;19.42;40.19
4410;BME280;2218;51.408;7.208;2023-12-22T07:55:26;98379.78;;;19.41;40.24
4410;BME280;2218;51.408;7.208;2023-12-22T07:57:53;98370.91;;;19.42;40.27
4410;BME280;2218;51.408;7.208;2023-12-22T08:00:20;98372.72;;;19.41;40.25
4410;BME280;2218;51.408;7.208;2023-12-22T08:02:47;98376.19;;;19.42;40.61
4410;BME280;2218;51.408;7.208;2023-12-22T08:05:19;98366.63;;;19.41;40.46
4410;BME280;2218;51.408;7.208;2023-12-22T08:07:47;98365.66;;;19.42;40.71
4410;BME280;2218;51.408;7.208;2023-12-22T08:10:14;98376.19;;;19.42;40.83
4410;BME280;2218;51.408;7.208;2023-12-22T08:12:42;98370.09;;;19.41;41.10
4410;BME280;2218;51.408;7.208;2023-12-22T08:15:10;98376.19;;;19.42;40.82
4410;BME280;2218;51.408;7.208;2023-12-22T08:17:46;98382.28;;;19.42;40.85
4410;BME280;2218;51.408;7.208;2023-12-22T08:20:17;98368.28;;;19.42;40.90
4410;BME280;2218;51.408;7.208;2023-12-22T08:22:47;98386.72;;;19.42;40.98
4410;BME280;2218;51.408;7.208;2023-12-22T08:25:15;98394.63;;;19.42;40.91
4410;BME280;2218;51.408;7.208;2023-12-22T08:27:43;98397.25;;;19.42;40.99
4410;BME280;2218;51.408;7.208;2023-12-22T08:30:11;98376.19;;;19.42;41.04
4410;BME280;2218;51.408;7.208;2023-12-22T08:32:38;98382.28;;;19.42;40.90
4410;BME280;2218;51.408;7.208;2023-12-22T08:35:07;98402.38;;;19.43;40.86
4410;BME280;2218;51.408;7.208;2023-12-22T08:37:34;98403.34;;;19.42;40.98
4410;BME280;2218;51.408;7.208;2023-12-22T08:40:04;98401.56;;;19.43;41.04
4410;BME280;2218;51.408;7.208;2023-12-22T08:42:31;98384.75;;;19.44;40.94
4410;BME280;2218;51.408;7.208;2023-12-22T08:44:58;98391.00;;;19.43;40.97
4410;BME280;2218;51.408;7.208;2023-12-22T08:47:25;98384.91;;;19.42;40.89
4410;BME280;2218;51.408;7.208;2023-12-22T08:49:52;98383.94;;;19.43;40.80
4410;BME280;2218;51.408;7.208;2023-12-22T08:52:19;98384.75;;;19.44;41.04
4410;BME280;2218;51.408;7.208;2023-12-22T08:54:46;98400.56;;;19.44;40.86
4410;BME280;2218;51.408;7.208;2023-12-22T08:57:15;98399.63;;;19.45;41.07
4410;BME280;2218;51.408;7.208;2023-12-22T08:59:41;98387.41;;;19.44;41.06
4410;BME280;2218;51.408;7.208;2023-12-22T09:02:08;98396.13;;;19.44;40.91
4410;BME280;2218;51.408;7.208;2023-12-22T09:04:36;98400.56;;;19.44;41.12
4410;BME280;2218;51.408;7.208;2023-12-22T09:07:04;98392.56;;;19.45;40.87
4410;BME280;2218;51.408;7.208;2023-12-22T09:09:31;98397.81;;;19.45;40.96
4410;BME280;2218;51.408;7.208;2023-12-22T09:11:58;98392.56;;;19.45;40.94
4410;BME280;2218;51.408;7.208;2023-12-22T09:14:26;98387.41;;;19.44;40.96
4410;BME280;2218;51.408;7.208;2023-12-22T09:16:54;98377.56;;;19.46;40.89
4410;BME280;2218;51.408;7.208;2023-12-22T09:19:21;98366.22;;;19.45;41.19
4410;BME280;2218;51.408;7.208;2023-12-22T09:21:48;98373.13;;;19.46;41.03
4410;BME280;2218;51.408;7.208;2023-12-22T09:24:16;98372.31;;;19.46;41.18
4410;BME280;2218;51.408;7.208;2023-12-22T09:26:43;98369.66;;;19.46;41.06
4410;BME280;2218;51.408;7.208;2023-12-22T09:29:10;98366.06;;;19.47;41.15
4410;BME280;2218;51.408;7.208;2023-12-22T09:31:38;98369.53;;;19.47;41.12
4410;BME280;2218;51.408;7.208;2023-12-22T09:34:05;98372.31;;;19.46;41.26
4410;BME280;2218;51.408;7.208;2023-12-22T09:36:32;98373.13;;;19.46;41.12
4410;BME280;2218;51.408;7.208;2023-12-22T09:38:59;98369.66;;;19.46;41.34
4410;BME280;2218;51.408;7.208;2023-12-22T09:41:27;98377.41;;;19.47;41.24
4410;BME280;2218;51.408;7.208;2023-12-22T09:43:55;98373.97;;;19.47;41.19
4410;BME280;2218;51.408;7.208;2023-12-22T09:46:25;98368.69;;;19.47;41.15
4410;BME280;2218;51.408;7.208;2023-12-22T09:48:54;98364.25;;;19.47;41.41
4410;BME280;2218;51.408;7.208;2023-12-22T09:51:21;98369.53;;;19.47;41.08
4410;BME280;2218;51.408;7.208;2023-12-22T09:53:51;98351.91;;;19.48;41.24
4410;BME280;2218;51.408;7.208;2023-12-22T09:56:19;98363.41;;;19.47;41.13
4410;BME280;2218;51.408;7.208;2023-12-22T09:58:48;98368.69;;;19.47;41.22
4410;BME280;2218;51.408;7.208;2023-12-22T10:01:19;98361.63;;;19.47;41.11
4410;BME280;2218;51.408;7.208;2023-12-22T10:03:49;98370.34;;;19.48;41.16
4410;BME280;2218;51.408;7.208;2023-12-22T10:06:17;98365.06;;;19.48;41.10
4410;BME280;2218;51.408;7.208;2023-12-22T10:08:46;98370.34;;;19.48;41.19
4410;BME280;2218;51.408;7.208;2023-12-22T10:11:18;98351.91;;;19.48;41.21
4410;BME280;2218;51.408;7.208;2023-12-22T10:13:48;98350.09;;;19.48;41.24
4410;BME280;2218;51.408;7.208;2023-12-22T10:16:19;98348.28;;;19.49;41.52
4410;BME280;2218;51.408;7.208;2023-12-22T10:18:45;98348.44;;;19.47;41.24
4410;BME280;2218;51.408;7.208;2023-12-22T10:21:13;98365.91;;;19.48;41.27
4410;BME280;2218;51.408;7.208;2023-12-22T10:23:41;98350.94;;;19.49;41.57
4410;BME280;2218;51.408;7.208;2023-12-22T10:26:11;98335.13;;;19.49;41.50
4410;BME280;2218;51.408;7.208;2023-12-22T10:28:38;98330.81;;;19.48;41.42
4410;BME280;2218;51.408;7.208;2023-12-22T10:31:05;98336.81;;;19.50;41.18
4410;BME280;2218;51.408;7.208;2023-12-22T10:33:33;98329.84;;;19.49;41.26
4410;BME280;2218;51.408;7.208;2023-12-22T10:36:00;98328.91;;;19.50;41.15
4410;BME280;2218;51.408;7.208;2023-12-22T10:38:32;98322.81;;;19.49;41.17
4410;BME280;2218;51.408;7.208;2023-12-22T10:41:03;98314.91;;;19.49;41.41
4410;BME280;2218;51.408;7.208;2023-12-22T10:43:30;98310.47;;;19.50;41.33
4410;BME280;2218;51.408;7.208;2023-12-22T10:45:57;98309.63;;;19.49;41.21
4410;BME280;2218;51.408;7.208;2023-12-22T10:48:24;98310.47;;;19.50;41.47
4410;BME280;2218;51.408;7.208;2023-12-22T10:50:51;98317.38;;;19.51;41.45
4410;BME280;2218;51.408;7.208;2023-12-22T10:53:20;98327.91;;;19.51;41.29
4410;BME280;2218;51.408;7.208;2023-12-22T10:55:49;98303.38;;;19.50;41.18
4410;BME280;2218;51.408;7.208;2023-12-22T10:58:18;98284.09;;;19.50;41.40
4410;BME280;2218;51.408;7.208;2023-12-22T11:00:47;98282.31;;;19.50;41.26
4410;BME280;2218;51.408;7.208;2023-12-22T11:03:18;98304.22;;;19.51;41.39
4410;BME280;2218;51.408;7.208;2023-12-22T11:05:57;98299.91;;;19.50;41.68
4410;BME280;2218;51.408;7.208;2023-12-22T11:08:28;98292.84;;;19.50;41.79
4410;BME280;2218;51.408;7.208;2023-12-22T11:10:58;98287.69;;;19.49;41.69
4410;BME280;2218;51.408;7.208;2023-12-22T11:13:29;98291.03;;;19.51;41.74
4410;BME280;2218;51.408;7.208;2023-12-22T11:15:58;98276.22;;;19.50;41.97
4410;BME280;2218;51.408;7.208;2023-12-22T11:18:27;98284.94;;;19.50;41.95
4410;BME280;2218;51.408;7.208;2023-12-22T11:20:56;98301.72;;;19.49;42.00
4410;BME280;2218;51.408;7.208;2023-12-22T11:23:25;98289.38;;;19.50;42.24
4410;BME280;2218;51.408;7.208;2023-12-22T11:25:53;98265.66;;;19.50;42.13
4410;BME280;2218;51.408;7.208;2023-12-22T11:28:22;98266.63;;;19.49;42.15
4410;BME280;2218;51.408;7.208;2023-12-22T11:30:54;98260.41;;;19.50;42.17
4410;BME280;2218;51.408;7.208;2023-12-22T11:33:25;98262.22;;;19.49;42.08
4410;BME280;2218;51.408;7.208;2023-12-22T11:35:56;98260.41;;;19.50;42.36
4410;BME280;2218;51.408;7.208;2023-12-22T11:38:23;98270.13;;;19.49;42.22
4410;BME280;2218;51.408;7.208;2023-12-22T11:40:53;98271.88;;;19.49;42.42
4410;BME280;2218;51.408;7.208;2023-12-22T11:43:21;98277.16;;;19.49;42.16
4410;BME280;2218;51.408;7.208;2023-12-22T11:45:49;98277.16;;;19.49;42.47
4410;BME280;2218;51.408;7.208;2023-12-22T11:48:17;98271.06;;;19.48;42.32
4410;BME280;2218;51.408;7.208;2023-12-22T11:50:44;98269.25;;;19.49;42.36
4410;BME280;2218;51.408;7.208;2023-12-22T11:53:19;98271.06;;;19.48;42.37
4410;BME280;2218;51.408;7.208;2023-12-22T11:55:57;98271.06;;;19.48;42.54
4410;BME280;2218;51.408;7.208;2023-12-22T11:58:38;98261.50;;;19.47;42.57
4410;BME280;2218;51.408;7.208;2023-12-22T12:01:08;98255.25;;;19.48;42.62
4410;BME280;2218;51.408;7.208;2023-12-22T12:03:49;98246.53;;;19.48;42.71
4410;BME280;2218;51.408;7.208;2023-12-22T12:06:30;98254.41;;;19.48;42.57
4410;BME280;2218;51.408;7.208;2023-12-22T12:08:59;98241.25;;;19.48;42.62
4410;BME280;2218;51.408;7.208;2023-12-22T12:12:08;98231.69;;;19.47;42.87
4410;BME280;2218;51.408;7.208;2023-12-22T12:14:42;98231.69;;;19.47;42.75
4410;BME280;2218;51.408;7.208;2023-12-22T12:17:10;98233.66;;;19.45;42.73
4410;BME280;2218;51.408;7.208;2023-12-22T12:19:39;98218.66;;;19.45;42.96
4410;BME280;2218;51.408;7.208;2023-12-22T12:22:08;98230.03;;;19.46;42.87
4410;BME280;2218;51.408;7.208;2023-12-22T12:24:36;98251.94;;;19.46;43.01
4410;BME280;2218;51.408;7.208;2023-12-22T12:27:04;98230.03;;;19.46;42.81
4410;BME280;2218;51.408;7.208;2023-12-22T12:29:32;98226.41;;;19.47;42.98
4410;BME280;2218;51.408;7.208;2023-12-22T12:32:04;98203.69;;;19.46;42.82
4410;BME280;2218;51.408;7.208;2023-12-22T12:34:31;98220.31;;;19.46;42.88
4410;BME280;2218;51.408;7.208;2023-12-22T12:37:01;98214.22;;;19.46;43.09
4410;BME280;2218;51.408;7.208;2023-12-22T12:39:30;98221.16;;;19.47;42.96
4410;BME280;2218;51.408;7.208;2023-12-22T12:42:00;98222.97;;;19.46;43.13
4410;BME280;2218;51.408;7.208;2023-12-22T12:44:30;98215.88;;;19.47;43.00
4410;BME280;2218;51.408;7.208;2023-12-22T12:46:58;98206.16;;;19.47;43.08
4410;BME280;2218;51.408;7.208;2023-12-22T12:49:25;98207.97;;;19.47;43.08
4410;BME280;2218;51.408;7.208;2023-12-22T12:51:55;98221.16;;;19.47;43.07
4410;BME280;2218;51.408;7.208;2023-12-22T12:54:23;98214.06;;;19.47;43.23
4410;BME280;2218;51.408;7.208;2023-12-22T12:56:51;98217.53;;;19.48;43.08
4410;BME280;2218;51.408;7.208;2023-12-22T12:59:18;98220.16;;;19.48;43.36
4410;BME280;2218;51.408;7.208;2023-12-22T13:01:47;98225.44;;;19.48;43.51
4410;BME280;2218;51.408;7.208;2023-12-22T13:04:15;98222.81;;;19.48;43.23
4410;BME280;2218;51.408;7.208;2023-12-22T13:06:45;98221.00;;;19.48;43.19
4410;BME280;2218;51.408;7.208;2023-12-22T13:09:14;98219.19;;;19.49;43.46
4410;BME280;2218;51.408;7.208;2023-12-22T13:11:43;98209.63;;;19.48;43.19
4410;BME280;2218;51.408;7.208;2023-12-22T13:14:12;98212.28;;;19.48;43.43
4410;BME280;2218;51.408;7.208;2023-12-22T13:16:39;98211.28;;;19.49;43.30
4410;BME280;2218;51.408;7.208;2023-12-22T13:19:07;98221.81;;;19.49;43.29
4410;BME280;2218;51.408;7.208;2023-12-22T13:21:34;98219.19;;;19.49;43.36
4410;BME280;2218;51.408;7.208;2023-12-22T13:24:10;98237.63;;;19.49;43.46
4410;BME280;2218;51.408;7.208;2023-12-22T13:26:37;98224.47;;;19.49;43.56
4410;BME280;2218;51.408;7.208;2023-12-22T13:29:06;98228.91;;;19.48;43.29